Time;durP1;ratioP1;P1;durP2;ratioP2;P2;SDS_P1;SDS_P2;PMS_P1;PMS_P2;Temp;Humidity;BMP_temperature;BMP_pressure;BME280_temperature;BME280_humidity;BME280_pressure;Samples;Min_cycle;Max_cycle;Signal;HPM_P1;HPM_P2
2021/08/09 00:03:45;;;;;;;3.35;1.92;;;21.20;67.50;;;;;;10417631;28;20118;-62
2021/08/09 00:08:45;;;;;;;4.20;2.40;;;21.20;67.40;;;;;;10417331;28;20034;-62
2021/08/09 00:13:47;;;;;;;3.47;2.30;;;21.20;67.40;;;;;;10417302;28;20419;-62
2021/08/09 00:25:44;;;;;;;4.57;2.15;;;21.20;67.30;;;;;;10409398;28;20466;-62
2021/08/09 00:30:45;;;;;;;4.10;2.50;;;21.20;67.20;;;;;;10412788;28;20128;-61
2021/08/09 00:35:46;;;;;;;4.95;2.40;;;21.20;67.10;;;;;;10419268;28;20112;-62
2021/08/09 00:40:47;;;;;;;3.60;2.47;;;21.20;67.10;;;;;;10415794;28;20128;-62
2021/08/09 00:45:48;;;;;;;4.63;2.45;;;21.10;67.00;;;;;;10415535;28;20381;-62
2021/08/09 00:50:49;;;;;;;2.58;2.17;;;21.10;66.90;;;;;;10415540;28;20037;-62
2021/08/09 00:55:52;;;;;;;4.05;2.28;;;21.20;67.00;;;;;;10415497;28;20065;-62
2021/08/09 01:00:53;;;;;;;4.32;2.40;;;21.10;66.90;;;;;;10430857;28;20032;-61
2021/08/09 01:05:54;;;;;;;5.63;3.33;;;21.10;66.80;;;;;;10414702;28;20546;-61
2021/08/09 01:11:41;;;;;;;4.45;2.30;;;21.10;66.80;;;;;;10415139;28;20033;-62
2021/08/09 01:16:44;;;;;;;5.72;2.40;;;21.10;66.60;;;;;;10413564;28;20108;-61
2021/08/09 01:21:46;;;;;;;4.45;2.47;;;21.10;66.80;;;;;;10430144;28;20022;-61
2021/08/09 01:27:10;;;;;;;3.85;2.30;;;21.10;66.70;;;;;;10424472;28;20112;-62
2021/08/09 01:32:11;;;;;;;3.85;2.28;;;21.10;66.80;;;;;;10437633;28;20047;-62
2021/08/09 01:37:12;;;;;;;4.00;2.22;;;21.10;66.80;;;;;;10427679;28;20033;-61
2021/08/09 01:42:16;;;;;;;4.95;2.55;;;21.10;66.80;;;;;;10421157;28;20050;-61
2021/08/09 01:47:17;;;;;;;4.32;2.53;;;21.10;66.80;;;;;;10420810;28;20135;-62
2021/08/09 01:52:20;;;;;;;4.53;2.65;;;21.10;66.80;;;;;;10429707;28;20039;-62
2021/08/09 01:57:21;;;;;;;5.10;2.63;;;21.10;66.70;;;;;;10412618;28;20116;-61
2021/08/09 02:02:27;;;;;;;4.22;2.25;;;21.10;66.70;;;;;;10418784;28;20679;-60
2021/08/09 02:07:28;;;;;;;5.05;2.65;;;21.00;66.80;;;;;;10421922;28;20041;-61
2021/08/09 02:12:29;;;;;;;4.40;2.25;;;21.10;66.80;;;;;;10420909;28;20553;-62
2021/08/09 02:17:45;;;;;;;5.07;2.60;;;21.00;66.70;;;;;;10421285;28;20029;-62
2021/08/09 02:22:51;;;;;;;4.43;2.65;;;21.00;66.60;;;;;;10421683;28;20030;-62
2021/08/09 02:28:15;;;;;;;4.68;2.38;;;21.00;66.60;;;;;;10418952;28;20030;-62
2021/08/09 02:33:20;;;;;;;4.47;2.40;;;21.00;66.50;;;;;;10428839;28;20238;-61
2021/08/09 02:38:22;;;;;;;4.00;2.40;;;21.00;66.60;;;;;;10418653;28;20064;-62
2021/08/09 02:43:25;;;;;;;5.18;2.88;;;21.00;66.60;;;;;;10435859;28;20029;-62
2021/08/09 02:48:27;;;;;;;3.72;2.25;;;21.00;66.60;;;;;;10395657;28;20502;-62
2021/08/09 02:53:28;;;;;;;4.43;2.78;;;21.00;66.60;;;;;;10420204;28;20078;-61
2021/08/09 02:58:29;;;;;;;3.50;2.17;;;21.00;66.50;;;;;;10435692;28;20029;-62
2021/08/09 03:03:31;;;;;;;3.80;2.30;;;21.00;66.40;;;;;;10435042;28;20025;-62
2021/08/09 03:08:32;;;;;;;5.00;2.25;;;21.00;66.50;;;;;;10418925;28;20057;-62
2021/08/09 03:13:34;;;;;;;3.97;2.08;;;21.00;66.40;;;;;;10417788;28;20053;-62
2021/08/09 03:18:34;;;;;;;7.97;2.97;;;21.00;66.60;;;;;;10419244;28;20498;-62
2021/08/09 03:23:36;;;;;;;4.05;2.35;;;20.90;66.60;;;;;;10419228;28;20049;-62
2021/08/09 03:28:37;;;;;;;3.75;2.20;;;21.00;66.70;;;;;;10405876;28;20108;-62
2021/08/09 03:33:38;;;;;;;3.75;2.20;;;20.90;66.60;;;;;;10427744;28;20028;-61
2021/08/09 03:38:39;;;;;;;4.65;2.60;;;21.00;66.70;;;;;;10418162;28;20081;-62
2021/08/09 03:43:39;;;;;;;4.72;2.40;;;20.90;66.70;;;;;;10418314;28;20152;-62
2021/08/09 03:48:41;;;;;;;5.72;2.78;;;21.00;66.70;;;;;;10418437;28;20112;-62
2021/08/09 03:53:42;;;;;;;6.68;2.60;;;21.00;66.60;;;;;;10416655;28;20022;-62
2021/08/09 03:58:42;;;;;;;3.53;2.38;;;21.00;66.50;;;;;;10417615;28;20052;-62
2021/08/09 04:03:43;;;;;;;4.57;2.38;;;20.90;66.40;;;;;;10417055;28;20069;-62
2021/08/09 04:08:44;;;;;;;5.35;2.50;;;20.90;66.40;;;;;;10414466;28;20057;-61
2021/08/09 04:13:44;;;;;;;4.15;2.45;;;20.90;66.50;;;;;;10412688;28;20098;-61
2021/08/09 04:18:45;;;;;;;4.80;2.63;;;20.90;66.60;;;;;;10415962;28;20572;-62
2021/08/09 04:23:46;;;;;;;3.95;2.78;;;20.90;66.50;;;;;;10413853;28;20056;-62
2021/08/09 04:28:47;;;;;;;5.25;2.40;;;20.90;66.40;;;;;;10405711;28;20046;-62
2021/08/09 04:33:50;;;;;;;4.65;2.35;;;20.90;66.50;;;;;;10414269;28;20498;-62
2021/08/09 04:38:50;;;;;;;5.13;2.65;;;20.90;66.50;;;;;;10414022;28;20544;-62
2021/08/09 04:43:51;;;;;;;4.38;2.42;;;20.90;66.50;;;;;;10398312;28;20155;-61
2021/08/09 04:48:52;;;;;;;5.28;2.60;;;20.90;66.40;;;;;;10415564;28;20481;-61
2021/08/09 04:53:52;;;;;;;3.50;2.28;;;20.90;66.50;;;;;;10415553;28;20112;-61
2021/08/09 04:58:53;;;;;;;4.13;2.60;;;20.90;66.50;;;;;;10415485;28;20057;-62
2021/08/09 05:03:54;;;;;;;8.45;3.00;;;20.90;66.40;;;;;;10413673;28;20444;-58
2021/08/09 05:08:55;;;;;;;6.53;2.80;;;20.90;68.40;;;;;;10415383;28;20071;-58
2021/08/09 05:13:57;;;;;;;9.35;2.85;;;21.00;68.70;;;;;;10414795;28;20460;-59
2021/08/09 05:19:01;;;;;;;8.90;3.25;;;21.00;68.80;;;;;;10429501;28;20084;-60
2021/08/09 05:24:05;;;;;;;7.68;2.92;;;21.00;68.90;;;;;;10414091;28;20026;-58
2021/08/09 05:29:05;;;;;;;10.75;2.92;;;21.00;68.80;;;;;;10411047;28;20025;-58
2021/08/09 05:34:06;;;;;;;8.38;2.85;;;21.00;68.70;;;;;;10414167;28;20553;-58
2021/08/09 05:39:07;;;;;;;8.90;3.22;;;21.00;68.70;;;;;;10411925;28;20049;-62
2021/08/09 05:44:08;;;;;;;10.88;2.65;;;21.00;68.70;;;;;;10413426;28;20542;-60
2021/08/09 05:49:09;;;;;;;8.40;2.88;;;21.00;68.70;;;;;;10414278;28;20037;-61
2021/08/09 05:54:09;;;;;;;6.93;2.75;;;21.00;68.50;;;;;;10413257;28;20033;-59
2021/08/09 05:59:10;;;;;;;21.30;3.53;;;21.10;68.70;;;;;;10413614;28;20433;-61
2021/08/09 06:04:11;;;;;;;10.77;3.25;;;21.10;68.50;;;;;;10413144;28;20053;-59
2021/08/09 06:09:11;;;;;;;21.55;4.57;;;21.00;68.30;;;;;;10404728;28;20064;-59
2021/08/09 06:14:12;;;;;;;9.15;3.17;;;21.00;68.60;;;;;;10409999;28;20052;-58
2021/08/09 06:19:13;;;;;;;13.30;3.60;;;21.00;68.80;;;;;;10411475;28;20061;-59
2021/08/09 06:24:13;;;;;;;14.73;3.55;;;21.00;68.60;;;;;;10406435;28;20520;-60
2021/08/09 06:29:14;;;;;;;8.60;2.85;;;21.00;68.90;;;;;;10405099;28;20060;-60
2021/08/09 06:34:15;;;;;;;10.27;3.00;;;21.00;69.00;;;;;;10421483;28;20029;-59
2021/08/09 06:39:19;;;;;;;10.48;3.00;;;21.00;69.20;;;;;;10428499;28;20050;-60
2021/08/09 06:44:20;;;;;;;12.32;2.90;;;20.90;69.20;;;;;;10413064;28;20443;-60
2021/08/09 06:49:21;;;;;;;10.07;3.25;;;21.00;69.40;;;;;;10418637;28;20064;-59
2021/08/09 06:54:24;;;;;;;17.17;4.25;;;21.00;69.10;;;;;;10420341;28;20064;-63
2021/08/09 06:59:25;;;;;;;16.58;3.30;;;20.90;69.30;;;;;;10435189;28;20026;-62
2021/08/09 07:04:26;;;;;;;12.18;3.13;;;21.00;69.00;;;;;;10419991;28;20501;-61
2021/08/09 07:09:26;;;;;;;19.10;3.80;;;21.00;68.90;;;;;;10419998;28;20037;-60
2021/08/09 07:14:27;;;;;;;15.60;3.50;;;21.00;68.60;;;;;;10419017;28;20064;-62
2021/08/09 07:19:28;;;;;;;15.85;4.32;;;21.00;68.70;;;;;;10418476;28;20110;-61
2021/08/09 07:24:28;;;;;;;13.55;3.40;;;20.90;68.80;;;;;;10417834;28;20056;-61
2021/08/09 07:29:31;;;;;;;18.15;2.95;;;21.00;68.90;;;;;;10418425;28;20037;-61
2021/08/09 07:34:31;;;;;;;10.18;3.35;;;21.00;69.00;;;;;;10417887;28;20028;-59
2021/08/09 07:39:36;;;;;;;19.98;4.25;;;20.90;68.90;;;;;;10416672;28;20076;-62
2021/08/09 07:44:36;;;;;;;20.88;4.05;;;21.00;68.70;;;;;;10418959;28;20068;-61
2021/08/09 07:49:37;;;;;;;18.17;3.75;;;21.00;69.00;;;;;;10416571;28;20541;-61
2021/08/09 07:54:38;;;;;;;12.02;3.28;;;21.00;69.00;;;;;;10417996;28;20051;-61
2021/08/09 07:59:38;;;;;;;13.88;3.20;;;21.00;68.80;;;;;;10417488;28;20061;-60
2021/08/09 08:04:43;;;;;;;8.77;3.45;;;21.00;68.90;;;;;;10417522;28;20486;-62
2021/08/09 08:09:44;;;;;;;13.20;4.03;;;21.00;68.80;;;;;;10432210;28;20021;-62
2021/08/09 08:14:44;;;;;;;12.98;2.72;;;21.00;68.80;;;;;;10417497;28;20025;-62
2021/08/09 08:19:45;;;;;;;12.15;4.32;;;21.10;68.60;;;;;;10416952;28;20116;-62
2021/08/09 08:24:46;;;;;;;10.40;3.15;;;21.10;68.40;;;;;;10416476;28;20075;-61
2021/08/09 08:29:46;;;;;;;8.35;2.42;;;21.10;68.20;;;;;;10416695;28;20036;-62
2021/08/09 08:34:48;;;;;;;8.35;2.63;;;21.10;68.40;;;;;;10424779;28;20118;-62
2021/08/09 08:39:49;;;;;;;9.57;2.13;;;21.00;68.40;;;;;;10415776;28;20131;-62
2021/08/09 08:44:50;;;;;;;5.95;1.92;;;21.10;68.30;;;;;;10416234;28;20470;-62
2021/08/09 08:49:51;;;;;;;5.07;2.47;;;21.00;68.20;;;;;;10431116;28;20022;-62
2021/08/09 08:54:52;;;;;;;3.95;2.10;;;21.10;68.30;;;;;;10415632;28;20032;-62
2021/08/09 08:59:53;;;;;;;5.00;2.30;;;21.10;68.40;;;;;;10415555;28;20108;-62
2021/08/09 09:04:53;;;;;;;8.48;2.40;;;21.10;68.40;;;;;;10415581;28;20057;-62
2021/08/09 09:10:35;;;;;;;4.63;2.30;;;21.10;68.10;;;;;;10414606;28;20037;-62
2021/08/09 09:16:03;;;;;;;4.93;2.15;;;21.10;68.10;;;;;;10414789;28;20088;-62
2021/08/09 09:21:04;;;;;;;4.35;2.25;;;21.10;68.00;;;;;;10414763;28;20129;-62
2021/08/09 09:26:23;;;;;;;5.85;2.15;;;21.10;68.10;;;;;;10430117;28;20033;-62
2021/08/09 09:31:30;;;;;;;7.25;2.22;;;21.10;68.00;;;;;;10420444;28;20158;-62
2021/08/09 09:36:55;;;;;;;4.18;2.00;;;21.10;68.00;;;;;;10416246;28;20037;-62
2021/08/09 09:42:00;;;;;;;6.60;2.78;;;21.10;68.10;;;;;;10414351;28;20136;-62
2021/08/09 09:47:25;;;;;;;7.10;2.50;;;21.10;68.10;;;;;;10414166;28;20388;-62
2021/08/09 09:52:35;;;;;;;3.92;1.90;;;21.10;68.10;;;;;;10414047;28;20033;-61
2021/08/09 09:57:38;;;;;;;5.03;2.38;;;21.10;68.00;;;;;;10413739;28;20096;-62
2021/08/09 10:02:41;;;;;;;5.05;2.50;;;21.20;68.10;;;;;;10413503;28;20035;-62
2021/08/09 10:07:46;;;;;;;5.97;2.15;;;21.10;68.10;;;;;;10413699;28;20033;-62
2021/08/09 10:12:48;;;;;;;3.58;2.38;;;21.10;67.90;;;;;;10412326;28;20025;-62
2021/08/09 10:17:52;;;;;;;5.28;2.30;;;21.10;68.00;;;;;;10428820;28;20113;-62
2021/08/09 10:23:01;;;;;;;9.60;2.28;;;21.10;68.10;;;;;;10432177;28;20116;-63
2021/08/09 10:28:04;;;;;;;7.28;2.30;;;21.10;68.80;;;;;;10420860;28;20490;-62
2021/08/09 10:33:08;;;;;;;10.50;3.25;;;21.20;69.30;;;;;;10428904;28;20394;-63
2021/08/09 10:38:34;;;;;;;8.02;2.45;;;21.20;69.30;;;;;;10420735;28;20029;-64
2021/08/09 10:43:42;;;;;;;7.43;2.50;;;21.20;69.30;;;;;;10420778;28;20029;-62
2021/08/09 10:48:42;;;;;;;4.78;2.33;;;21.30;69.60;;;;;;10420757;28;20441;-63
2021/08/09 10:53:46;;;;;;;5.40;2.33;;;21.30;69.80;;;;;;10436000;28;20037;-61
2021/08/09 10:58:46;;;;;;;6.75;2.28;;;21.30;69.80;;;;;;10420539;28;20204;-59
2021/08/09 11:04:15;;;;;;;5.05;1.90;;;21.30;69.60;;;;;;10420274;28;20204;-59
2021/08/09 11:09:34;;;;;;;10.88;2.83;;;21.30;69.40;;;;;;10418898;28;20418;-58
2021/08/09 11:14:59;;;;;;;15.10;2.58;;;21.30;69.70;;;;;;10418941;28;20029;-60
2021/08/09 11:20:11;;;;;;;11.73;3.10;;;21.20;69.30;;;;;;10418658;28;20436;-60
2021/08/09 11:25:35;;;;;;;9.52;2.67;;;21.20;69.70;;;;;;10411447;28;20472;-60
2021/08/09 11:30:48;;;;;;;11.52;2.67;;;21.20;69.70;;;;;;10418316;28;20405;-60
2021/08/09 11:35:49;;;;;;;8.45;1.98;;;21.30;69.80;;;;;;10411133;28;20176;-59
2021/08/09 11:41:00;;;;;;;11.65;2.47;;;21.30;69.80;;;;;;10401059;28;20050;-59
2021/08/09 11:46:06;;;;;;;10.48;2.40;;;21.30;69.80;;;;;;10417518;28;20033;-58
2021/08/09 11:51:13;;;;;;;9.60;2.42;;;21.30;69.90;;;;;;10417702;28;20029;-58
2021/08/09 11:56:37;;;;;;;10.98;2.60;;;21.30;69.90;;;;;;10417511;28;20033;-59
2021/08/09 12:01:41;;;;;;;12.82;3.10;;;21.30;69.90;;;;;;10417130;28;20061;-58
2021/08/09 12:06:59;;;;;;;11.60;2.67;;;21.30;70.30;;;;;;10416847;28;20175;-59
2021/08/09 12:12:06;;;;;;;10.57;2.88;;;21.30;70.30;;;;;;10416896;28;20527;-59
2021/08/09 12:17:21;;;;;;;9.93;2.78;;;21.30;70.30;;;;;;10417094;28;20034;-59
2021/08/09 12:22:34;;;;;;;10.23;3.05;;;21.30;69.00;;;;;;10431770;28;20033;-59
2021/08/09 12:27:35;;;;;;;10.68;2.63;;;21.30;69.50;;;;;;10404226;28;20026;-60
2021/08/09 12:32:58;;;;;;;16.13;4.03;;;21.40;69.50;;;;;;10424665;28;20029;-59
2021/08/09 12:37:59;;;;;;;10.07;2.67;;;21.40;69.40;;;;;;10404562;28;20037;-61
2021/08/09 12:43:12;;;;;;;10.48;2.67;;;21.40;69.60;;;;;;10418370;28;20061;-60
2021/08/09 12:48:14;;;;;;;13.00;3.13;;;21.40;69.60;;;;;;10408130;28;20400;-61
2021/08/09 12:53:15;;;;;;;8.25;2.60;;;21.40;69.70;;;;;;10394798;28;20061;-61
2021/08/09 12:58:15;;;;;;;10.93;2.50;;;21.40;69.70;;;;;;10409350;28;20049;-63
2021/08/09 13:03:16;;;;;;;11.07;3.25;;;21.50;70.00;;;;;;10408970;28;20112;-61
2021/08/09 13:08:17;;;;;;;15.30;2.67;;;21.50;70.00;;;;;;10408235;28;20060;-61
2021/08/09 13:13:18;;;;;;;7.20;2.60;;;21.60;69.80;;;;;;10413469;28;20367;-60
2021/08/09 13:18:18;;;;;;;11.07;2.88;;;21.60;69.60;;;;;;10414963;28;20405;-59
2021/08/09 13:23:20;;;;;;;12.27;2.22;;;21.50;69.20;;;;;;10414174;28;20172;-61
2021/08/09 13:28:20;;;;;;;12.40;2.95;;;21.50;69.20;;;;;;10401630;28;20029;-61
2021/08/09 13:33:21;;;;;;;8.52;2.55;;;21.50;69.20;;;;;;10436236;28;20018;-61
2021/08/09 13:38:22;;;;;;;13.80;2.53;;;21.40;69.10;;;;;;10412440;28;20048;-61
2021/08/09 13:43:23;;;;;;;4.63;1.85;;;21.50;69.10;;;;;;10414044;28;20152;-61
2021/08/09 13:48:24;;;;;;;4.78;2.35;;;21.40;69.10;;;;;;10414164;28;20393;-62
2021/08/09 13:53:25;;;;;;;5.78;2.10;;;21.40;69.10;;;;;;10413310;28;20117;-61
2021/08/09 13:58:25;;;;;;;5.05;1.95;;;21.40;69.10;;;;;;10418940;28;20414;-62
2021/08/09 14:03:26;;;;;;;7.18;2.00;;;21.40;69.10;;;;;;10421532;28;20061;-61
2021/08/09 14:08:27;;;;;;;10.80;2.08;;;21.30;69.00;;;;;;10428749;28;20425;-60
2021/08/09 14:13:28;;;;;;;9.68;3.47;;;21.30;69.90;;;;;;10418532;28;20362;-60
2021/08/09 14:18:28;;;;;;;6.88;2.15;;;21.40;70.50;;;;;;10419593;28;20070;-60
2021/08/09 14:23:29;;;;;;;6.72;2.08;;;21.40;70.70;;;;;;10419236;28;20026;-60
2021/08/09 14:28:31;;;;;;;7.15;2.55;;;21.40;70.80;;;;;;10419261;28;20025;-60
2021/08/09 14:33:34;;;;;;;19.38;3.33;;;21.40;71.00;;;;;;10421620;28;20378;-60
2021/08/09 14:38:34;;;;;;;20.88;3.40;;;21.40;71.20;;;;;;10419893;28;20064;-60
2021/08/09 14:43:35;;;;;;;27.67;3.90;;;21.50;71.20;;;;;;10420495;28;20034;-60
2021/08/09 14:48:36;;;;;;;25.92;3.20;;;21.50;71.40;;;;;;10421002;28;20030;-61
2021/08/09 14:53:37;;;;;;;28.08;5.03;;;21.50;71.20;;;;;;10420795;28;20478;-60
2021/08/09 14:58:37;;;;;;;30.30;4.25;;;21.50;70.90;;;;;;10420413;28;20096;-60
2021/08/09 15:03:41;;;;;;;22.60;3.65;;;21.50;70.90;;;;;;10420359;28;20542;-59
2021/08/09 15:08:42;;;;;;;19.40;4.40;;;21.60;71.10;;;;;;10419268;28;20444;-58
2021/08/09 15:13:43;;;;;;;24.92;4.35;;;21.50;70.80;;;;;;10419582;28;20025;-60
2021/08/09 15:18:44;;;;;;;29.77;5.35;;;21.50;70.90;;;;;;10419533;28;20034;-57
2021/08/09 15:23:45;;;;;;;15.40;2.67;;;21.50;70.90;;;;;;10419281;28;20029;-59
2021/08/09 15:28:46;;;;;;;27.98;4.53;;;21.50;70.20;;;;;;10419228;28;20103;-59
2021/08/09 15:33:47;;;;;;;16.08;3.53;;;21.50;70.40;;;;;;10427889;28;20111;-59
2021/08/09 15:38:49;;;;;;;14.93;3.85;;;21.50;70.60;;;;;;10407274;28;20038;-60
2021/08/09 15:43:50;;;;;;;28.80;4.53;;;21.50;70.70;;;;;;10408005;28;20036;-59
2021/08/09 15:48:51;;;;;;;20.38;3.92;;;21.50;70.60;;;;;;10418529;28;20426;-60
2021/08/09 15:53:55;;;;;;;25.58;10.52;;;21.50;70.50;;;;;;10417183;28;20506;-61
2021/08/09 15:58:56;;;;;;;21.15;6.43;;;21.60;72.40;;;;;;10417603;28;20037;-61
2021/08/09 16:03:58;;;;;;;28.80;7.32;;;21.70;73.90;;;;;;10416818;28;20021;-59
2021/08/09 16:08:59;;;;;;;33.25;13.18;;;21.80;72.40;;;;;;10417526;28;20048;-56
2021/08/09 16:13:59;;;;;;;21.45;6.47;;;21.80;76.30;;;;;;10417340;28;20425;-58
2021/08/09 16:19:00;;;;;;;20.40;5.55;;;21.80;74.10;;;;;;10415813;28;20068;-58
2021/08/09 16:24:00;;;;;;;25.50;5.85;;;21.80;73.50;;;;;;10415123;28;20097;-59
2021/08/09 16:29:02;;;;;;;18.50;5.72;;;21.80;73.10;;;;;;10417194;28;20055;-60
2021/08/09 16:34:03;;;;;;;17.95;4.72;;;21.80;72.40;;;;;;10425078;28;20390;-59
2021/08/09 16:39:04;;;;;;;13.00;4.40;;;21.80;72.50;;;;;;10416204;28;20132;-59
2021/08/09 16:44:05;;;;;;;18.20;4.60;;;21.80;72.50;;;;;;10431572;28;20100;-60
2021/08/09 16:49:06;;;;;;;16.05;5.80;;;21.80;72.70;;;;;;10415851;28;20041;-61
2021/08/09 16:54:06;;;;;;;20.98;5.93;;;21.80;72.90;;;;;;10415402;28;20043;-61
2021/08/09 16:59:08;;;;;;;16.75;4.90;;;21.80;72.40;;;;;;10414430;28;20030;-60
2021/08/09 17:04:11;;;;;;;23.67;5.03;;;21.70;73.40;;;;;;10415553;28;20454;-60
2021/08/09 17:09:13;;;;;;;11.95;4.07;;;21.70;73.30;;;;;;10414830;28;20482;-59
2021/08/09 17:14:13;;;;;;;16.33;4.10;;;21.70;73.20;;;;;;10415165;28;20040;-60
2021/08/09 17:19:14;;;;;;;14.38;4.53;;;21.70;73.00;;;;;;10413588;28;20533;-60
2021/08/09 17:24:18;;;;;;;11.55;3.80;;;21.70;72.90;;;;;;10414616;28;20072;-61
2021/08/09 17:29:20;;;;;;;13.38;3.97;;;21.70;72.40;;;;;;10412739;28;20032;-61
2021/08/09 17:34:21;;;;;;;14.18;3.38;;;21.60;71.90;;;;;;10409506;28;20498;-61
2021/08/09 17:39:23;;;;;;;10.07;3.03;;;21.60;72.60;;;;;;10403548;28;20034;-60
2021/08/09 17:44:24;;;;;;;9.23;3.40;;;21.60;72.10;;;;;;10412330;28;20091;-60
2021/08/09 17:49:26;;;;;;;9.45;3.72;;;21.60;72.30;;;;;;10411906;28;20036;-61
2021/08/09 17:54:27;;;;;;;11.70;3.92;;;21.60;72.40;;;;;;10409272;28;20037;-59
2021/08/09 17:59:28;;;;;;;10.40;2.92;;;21.60;72.40;;;;;;10411131;28;20033;-58
2021/08/09 18:04:29;;;;;;;7.97;3.63;;;21.60;72.30;;;;;;10409619;28;20052;-60
2021/08/09 18:09:30;;;;;;;7.85;3.78;;;21.60;72.20;;;;;;10408600;28;20092;-58
2021/08/09 18:14:31;;;;;;;6.35;2.38;;;21.60;72.10;;;;;;10404965;28;20113;-59
2021/08/09 18:19:32;;;;;;;7.03;2.30;;;21.60;72.30;;;;;;10401575;28;20111;-60
2021/08/09 18:24:32;;;;;;;6.35;2.92;;;21.60;72.30;;;;;;10390897;28;20017;-59
2021/08/09 18:29:33;;;;;;;8.52;2.75;;;21.60;72.40;;;;;;10410143;28;20033;-60
2021/08/09 18:34:34;;;;;;;8.20;3.05;;;21.60;72.30;;;;;;10410177;28;20021;-60
2021/08/09 18:39:36;;;;;;;6.50;2.33;;;21.60;71.90;;;;;;10410559;28;20044;-60
2021/08/09 18:44:37;;;;;;;9.13;2.50;;;21.60;72.10;;;;;;10430764;28;20033;-60
2021/08/09 18:49:38;;;;;;;7.63;2.70;;;21.60;72.20;;;;;;10418885;28;20088;-60
2021/08/09 18:54:39;;;;;;;7.53;2.90;;;21.50;72.20;;;;;;10420325;28;20029;-60
2021/08/09 18:59:39;;;;;;;9.95;3.17;;;21.50;72.00;;;;;;10417599;28;20013;-60
2021/08/09 19:04:40;;;;;;;5.95;2.70;;;21.50;72.00;;;;;;10419021;28;20032;-60
2021/08/09 19:09:46;;;;;;;6.18;3.95;;;21.50;72.20;;;;;;10417870;28;20516;-61
2021/08/09 19:14:47;;;;;;;13.05;2.70;;;21.50;72.40;;;;;;10418199;28;20073;-60
2021/08/09 19:19:48;;;;;;;6.45;3.20;;;21.60;72.40;;;;;;10417449;28;20026;-61
2021/08/09 19:24:48;;;;;;;6.43;2.83;;;21.60;72.20;;;;;;10431228;28;20021;-61
2021/08/09 19:29:49;;;;;;;6.68;2.25;;;21.50;72.10;;;;;;10418390;28;20095;-61
2021/08/09 19:34:50;;;;;;;6.55;2.38;;;21.50;72.00;;;;;;10417925;28;20113;-61
2021/08/09 19:39:50;;;;;;;6.38;2.42;;;21.50;71.90;;;;;;10417375;28;20049;-61
2021/08/09 19:44:51;;;;;;;5.30;2.72;;;21.50;71.90;;;;;;10418357;28;20052;-61
2021/08/09 19:49:52;;;;;;;6.03;2.80;;;21.50;71.80;;;;;;10417699;28;20030;-61
2021/08/09 19:54:52;;;;;;;5.32;2.60;;;21.50;71.90;;;;;;10417886;28;20037;-61
2021/08/09 19:59:53;;;;;;;5.47;2.95;;;21.50;71.80;;;;;;10417951;28;20120;-61
2021/08/09 20:04:54;;;;;;;10.52;2.97;;;21.50;71.80;;;;;;10417135;28;20111;-61
2021/08/09 20:09:54;;;;;;;5.78;2.90;;;21.40;71.70;;;;;;10417677;28;20504;-61
2021/08/09 20:14:55;;;;;;;3.85;2.10;;;21.40;71.70;;;;;;10417130;28;20072;-61
2021/08/09 20:19:56;;;;;;;4.22;2.67;;;21.40;71.60;;;;;;10399211;28;20056;-61
2021/08/09 20:24:57;;;;;;;3.63;2.47;;;21.50;71.60;;;;;;10405983;28;20064;-61
2021/08/09 20:29:57;;;;;;;6.55;2.70;;;21.40;71.50;;;;;;10414732;28;20424;-61
2021/08/09 20:34:58;;;;;;;3.83;2.35;;;21.40;71.60;;;;;;10416669;28;20529;-62
2021/08/09 20:39:59;;;;;;;4.05;2.25;;;21.50;71.60;;;;;;10415117;28;20144;-61
2021/08/09 20:44:59;;;;;;;4.18;2.33;;;21.40;71.40;;;;;;10416286;28;20029;-61
2021/08/09 20:50:00;;;;;;;6.03;2.90;;;21.40;71.30;;;;;;10415013;28;20048;-61
2021/08/09 20:55:01;;;;;;;5.45;2.67;;;21.40;71.30;;;;;;10416396;28;20519;-61
2021/08/09 21:00:04;;;;;;;5.88;2.45;;;21.40;71.30;;;;;;10409697;28;20167;-61
2021/08/09 21:05:05;;;;;;;6.30;2.70;;;21.40;71.20;;;;;;10415137;28;20033;-61
2021/08/09 21:10:11;;;;;;;4.93;2.50;;;21.40;71.30;;;;;;10415620;28;20401;-61
2021/08/09 21:15:11;;;;;;;3.33;2.22;;;21.40;71.30;;;;;;10422916;28;20029;-60
2021/08/09 21:20:12;;;;;;;4.75;2.50;;;21.40;71.20;;;;;;10415076;28;20036;-61
2021/08/09 21:25:13;;;;;;;3.33;2.38;;;21.30;71.10;;;;;;10401884;28;20034;-60
2021/08/09 21:30:14;;;;;;;5.07;2.83;;;21.30;71.10;;;;;;10414971;28;20048;-60
2021/08/09 21:35:15;;;;;;;2.78;1.80;;;21.30;71.00;;;;;;10408960;28;20030;-61
2021/08/09 21:40:16;;;;;;;8.00;2.60;;;21.30;71.00;;;;;;10413166;28;20124;-61
2021/08/09 21:45:16;;;;;;;4.65;2.53;;;21.30;71.10;;;;;;10414284;28;20105;-61
2021/08/09 21:50:17;;;;;;;4.80;2.25;;;21.30;71.10;;;;;;10414421;28;20544;-61
2021/08/09 21:55:18;;;;;;;4.32;2.33;;;21.30;71.10;;;;;;10413834;28;20079;-60
2021/08/09 22:00:21;;;;;;;3.15;2.53;;;21.30;71.00;;;;;;10413914;28;20351;-61
2021/08/09 22:05:22;;;;;;;4.53;2.45;;;21.30;71.00;;;;;;10413605;28;20029;-61
2021/08/09 22:10:22;;;;;;;5.72;2.45;;;21.30;70.90;;;;;;10414124;28;20036;-61
2021/08/09 22:15:23;;;;;;;5.80;3.10;;;21.30;71.00;;;;;;10414229;28;20033;-61
2021/08/09 22:20:24;;;;;;;4.20;2.33;;;21.30;71.10;;;;;;10420552;28;20033;-61
2021/08/09 22:25:25;;;;;;;3.30;2.25;;;21.30;71.10;;;;;;10421790;28;20026;-61
2021/08/09 22:30:26;;;;;;;4.53;2.42;;;21.30;70.90;;;;;;10435052;28;20029;-61
2021/08/09 22:35:26;;;;;;;4.07;1.90;;;21.30;70.90;;;;;;10427752;28;20045;-61
2021/08/09 22:40:27;;;;;;;4.28;2.40;;;21.30;70.90;;;;;;10421044;28;20080;-61
2021/08/09 22:45:28;;;;;;;3.83;2.40;;;21.30;71.00;;;;;;10420815;28;20037;-61
2021/08/09 22:50:28;;;;;;;4.15;2.33;;;21.30;71.00;;;;;;10429935;28;20112;-61
2021/08/09 22:55:29;;;;;;;4.13;2.67;;;21.30;70.90;;;;;;10419248;28;20029;-61
2021/08/09 23:00:30;;;;;;;3.45;2.47;;;21.30;70.90;;;;;;10419021;28;20035;-61
2021/08/09 23:05:31;;;;;;;4.20;2.78;;;21.20;70.80;;;;;;10420265;28;20040;-61
2021/08/09 23:10:32;;;;;;;6.20;2.85;;;21.30;70.90;;;;;;10419822;28;20038;-61
2021/08/09 23:15:33;;;;;;;4.85;2.70;;;21.20;70.80;;;;;;10419926;28;20108;-61
2021/08/09 23:20:33;;;;;;;4.03;2.60;;;21.20;70.80;;;;;;10420229;28;20033;-61
2021/08/09 23:25:34;;;;;;;5.18;2.58;;;21.20;70.80;;;;;;10418288;28;20493;-61
2021/08/09 23:30:35;;;;;;;4.40;2.78;;;21.20;70.70;;;;;;10418839;28;20029;-61
2021/08/09 23:35:35;;;;;;;4.07;2.50;;;21.20;70.70;;;;;;10427732;28;20048;-61
2021/08/09 23:40:36;;;;;;;3.85;2.00;;;21.20;70.70;;;;;;10418788;28;20077;-61
2021/08/09 23:45:37;;;;;;;4.40;2.38;;;21.20;70.70;;;;;;10418548;28;20104;-61
2021/08/09 23:50:37;;;;;;;6.32;2.83;;;21.20;70.70;;;;;;10417353;28;20040;-61
2021/08/09 23:55:38;;;;;;;4.13;2.65;;;21.20;70.60;;;;;;10417225;28;20679;-61
